High Springs, Florida
Current Conditions -  °F | °C
As of 5:53 AM on Wednesday 26 Nov 2014 (Local Time) from KGNV Reporting Station
Moderate Rain Moderate Rain  
Wind Chill: 45°   Ceiling: 3800
Heat Index: 49°   Visibility: 4mi
Dew Point: 47°   Wind: 9mph
Humidity: 93%   Direction: 330°NNW
Pressure: 30.01"   Gusts: 18mph
Location:  29.82°N, 82.59°W
Report Text: KGNV 261053Z AUTO 33008G16KT 4SM RA BR FEW008 BKN038 OVC055 09/08 A3001 RMK AO2 SLP161 P0015 T00940083
Loading
Personal Weather Stations






























Interactive Weather Map New forecast layout! Learn more

10-Day Weather Forecast

Advertisements
Track Severe Weather on mobile